Página principal
METAR-TAF:

METAR-TAF

Aeroportos :

Aeroporto Internacional Jinnah

Carachi, Paquistão

latitude: 24-54N, longitude: 067-08E, altura: 21 m

Observação actual do tempo

O boletim foi feito há 25 minutos, às 16:50 UTC
Vento 5 kt de oeste
Temperatura 23°C
Humidade 73%
Pressão 1012 hPa
Visibilidade: 6000 m

METAR: OPKC 201650Z 28005KT 6000 NSC 23/18 Q1012 NOSIG

Hora: 22:15 (17:15 UTC)

Previsão

O boletim foi feito há 4 horas e 45 minutos, às 12:30 UTC
Previsão válida de 20 às 15 UTC a 20 às 24 UTC
Vento 7 kt de oeste
Visibilidade: 6000 m

TAF: OPKC 201230Z 2015/2024 28007KT 6000 NSC

Observações e previsões do tempo de mais de 4000 aeroportos (mensagens METAR e TAF).

As estações disponíveis são os pontos amarelos e vermelhos sobre o mapa.

Mova o rato sobre o mapa para ver o nome da estação.

Depois clique no ponto para visualizar as observações e previsões meteorológicas.

Para alterar o mapa : clique nos botões verdes com uma cruz preta para aumentar o zoom; no botão verde com uma pitada de zoom; ou nas setas verdes para mapas adjacentes.


METAR-TAF: